createdAt,value
2022-11-26T00:01:20.312Z,8.07
2022-11-26T00:03:47.761Z,8.05
2022-11-26T00:06:29.173Z,10.93
2022-11-26T00:08:56.059Z,9.55
2022-11-26T00:11:22.827Z,9.32
2022-11-26T00:13:49.649Z,9.93
2022-11-26T00:16:16.504Z,7.57
2022-11-26T00:18:44.086Z,9.85
2022-11-26T00:21:26.790Z,8.25
2022-11-26T00:23:54.447Z,5.45
2022-11-26T00:26:23.158Z,12.07
2022-11-26T00:28:54.608Z,9.05
2022-11-26T00:31:21.878Z,7.07
2022-11-26T00:33:48.812Z,9.43
2022-11-26T00:36:25.176Z,9.65
2022-11-26T00:38:56.745Z,9.88
2022-11-26T00:41:27.105Z,8.65
2022-11-26T00:43:53.926Z,12.60
2022-11-26T00:46:22.309Z,15.68
2022-11-26T00:48:49.564Z,6.05
2022-11-26T00:51:22.921Z,8.93
2022-11-26T00:53:51.074Z,13.80
2022-11-26T00:56:20.351Z,10.00
2022-11-26T00:58:48.903Z,10.65
2022-11-26T01:01:22.015Z,12.18
2022-11-26T01:03:49.123Z,9.95
2022-11-26T01:06:22.262Z,10.07
2022-11-26T01:08:49.882Z,9.50
2022-11-26T01:11:22.393Z,8.70
2022-11-26T01:13:52.028Z,8.25
2022-11-26T01:16:22.640Z,7.18
2022-11-26T01:18:51.730Z,6.15
2022-11-26T01:21:18.957Z,7.57
2022-11-26T01:23:46.391Z,12.48
2022-11-26T01:26:43.788Z,12.98
2022-11-26T01:29:16.325Z,8.63
2022-11-26T01:31:43.204Z,9.60
2022-11-26T01:34:10.086Z,6.70
2022-11-26T01:36:39.392Z,7.88
2022-11-26T01:39:17.659Z,8.55
2022-11-26T01:42:15.227Z,9.57
2022-11-26T01:44:42.009Z,7.43
2022-11-26T01:47:30.507Z,8.55
2022-11-26T01:50:28.920Z,7.85
2022-11-26T01:53:10.345Z,13.75
2022-11-26T01:55:41.416Z,8.68
2022-11-26T01:58:11.515Z,6.07
2022-11-26T02:00:38.391Z,9.65
2022-11-26T02:03:05.729Z,8.00
2022-11-26T02:05:39.976Z,10.45
2022-11-26T02:08:07.616Z,12.95
2022-11-26T02:10:35.077Z,7.90
2022-11-26T02:13:02.152Z,12.00
2022-11-26T02:15:35.297Z,9.85
2022-11-26T02:18:06.779Z,10.18
2022-11-26T02:20:42.338Z,10.02
2022-11-26T02:23:54.910Z,9.93
2022-11-26T02:26:43.855Z,8.73
2022-11-26T02:29:14.774Z,15.07
2022-11-26T02:31:51.203Z,10.18
2022-11-26T02:34:37.563Z,12.43
2022-11-26T02:37:13.015Z,8.45
2022-11-26T02:39:39.853Z,7.47
2022-11-26T02:42:30.252Z,8.10
2022-11-26T02:45:00.292Z,12.77
2022-11-26T02:47:28.700Z,11.02
2022-11-26T02:49:59.746Z,9.35
2022-11-26T02:52:27.966Z,7.28
2022-11-26T02:54:55.935Z,9.88
2022-11-26T02:57:27.107Z,11.55
2022-11-26T02:59:54.172Z,14.13
2022-11-26T03:02:30.893Z,10.50
2022-11-26T03:05:01.496Z,58.55
2022-11-26T03:07:32.019Z,9.73
2022-11-26T03:10:01.541Z,13.23
2022-11-26T03:12:28.837Z,10.75
2022-11-26T03:14:55.888Z,13.20
2022-11-26T03:17:22.831Z,12.98
2022-11-26T03:19:49.699Z,12.52
2022-11-26T03:22:16.806Z,11.85
2022-11-26T03:24:43.659Z,14.35
2022-11-26T03:27:10.525Z,11.88
2022-11-26T03:29:37.445Z,8.77
2022-11-26T03:32:04.605Z,8.57
2022-11-26T03:34:31.546Z,16.85
2022-11-26T03:36:58.297Z,13.80
2022-11-26T03:39:25.065Z,9.48
2022-11-26T03:41:51.826Z,14.57
2022-11-26T03:44:18.754Z,20.05
2022-11-26T03:46:45.554Z,16.05
2022-11-26T03:49:12.373Z,12.60
2022-11-26T03:51:39.138Z,10.60
2022-11-26T03:54:05.910Z,11.15
2022-11-26T03:56:32.680Z,12.02
2022-11-26T03:58:59.427Z,10.43
2022-11-26T04:01:26.325Z,14.32
2022-11-26T04:03:53.138Z,9.60
2022-11-26T04:06:19.937Z,9.93
2022-11-26T04:08:46.822Z,10.45
2022-11-26T04:11:14.110Z,10.50
2022-11-26T04:13:40.885Z,14.75
2022-11-26T04:16:08.079Z,13.48
2022-11-26T04:18:34.990Z,13.27
2022-11-26T04:21:01.824Z,15.55
2022-11-26T04:23:28.658Z,13.63
2022-11-26T04:25:55.445Z,17.17
2022-11-26T04:28:22.190Z,15.32
2022-11-26T04:30:48.987Z,13.40
2022-11-26T04:33:16.001Z,15.48
2022-11-26T04:35:43.240Z,13.90
2022-11-26T04:38:11.213Z,14.73
2022-11-26T04:40:38.040Z,15.60
2022-11-26T04:43:04.803Z,10.35
2022-11-26T04:45:31.574Z,13.25
2022-11-26T04:47:58.539Z,10.90
2022-11-26T04:50:25.411Z,10.10
2022-11-26T04:52:52.287Z,11.93
2022-11-26T04:55:19.131Z,8.20
2022-11-26T04:57:48.627Z,14.20
2022-11-26T05:00:20.631Z,8.15
2022-11-26T05:02:47.546Z,13.68
2022-11-26T05:05:15.079Z,11.43
2022-11-26T05:07:42.102Z,12.63
2022-11-26T05:10:11.937Z,10.32
2022-11-26T05:12:38.836Z,7.60
2022-11-26T05:15:06.453Z,5.68
2022-11-26T05:17:33.447Z,6.47
2022-11-26T05:20:00.230Z,7.07
2022-11-26T05:22:27.247Z,6.03
2022-11-26T05:24:54.046Z,13.18
2022-11-26T05:27:20.799Z,7.38
2022-11-26T05:29:48.157Z,9.15
2022-11-26T05:32:15.035Z,9.02
2022-11-26T05:34:41.986Z,8.23
2022-11-26T05:37:09.030Z,8.05
2022-11-26T05:39:35.913Z,8.10
2022-11-26T05:42:08.820Z,7.97
2022-11-26T05:44:36.315Z,8.25
2022-11-26T05:47:03.425Z,7.32
2022-11-26T05:49:30.263Z,6.82
2022-11-26T05:51:57.052Z,8.82
2022-11-26T05:54:23.921Z,5.97
2022-11-26T05:56:54.257Z,8.85
2022-11-26T05:59:25.615Z,9.75
2022-11-26T06:01:52.454Z,10.57
2022-11-26T06:04:19.312Z,6.68
2022-11-26T06:06:46.083Z,7.05
2022-11-26T06:09:13.795Z,8.57
2022-11-26T06:11:40.702Z,9.70
2022-11-26T06:14:07.516Z,10.65
2022-11-26T06:16:34.345Z,12.45
2022-11-26T06:19:01.129Z,11.18
2022-11-26T06:21:28.075Z,11.13
2022-11-26T06:23:59.348Z,8.20
2022-11-26T06:28:53.610Z,8.88
2022-11-26T06:31:20.662Z,12.77
2022-11-26T06:33:47.633Z,8.57
2022-11-26T06:36:14.470Z,11.65
2022-11-26T06:38:41.221Z,9.35
2022-11-26T06:41:08.729Z,8.27
2022-11-26T06:43:36.496Z,9.93
2022-11-26T06:46:05.476Z,10.57
2022-11-26T06:48:32.878Z,8.25
2022-11-26T06:51:27.633Z,9.85
2022-11-26T06:53:54.722Z,10.85
2022-11-26T06:56:21.770Z,8.07
2022-11-26T06:58:49.714Z,12.55
2022-11-26T07:01:23.722Z,9.65
2022-11-26T07:03:51.149Z,11.95
2022-11-26T07:06:23.994Z,13.40
2022-11-26T07:08:51.935Z,15.27
2022-11-26T07:11:19.505Z,15.18
2022-11-26T07:13:46.578Z,16.58
2022-11-26T07:16:14.173Z,11.88
2022-11-26T07:18:41.387Z,12.88
2022-11-26T07:21:11.031Z,13.85
2022-11-26T07:23:41.100Z,11.48
2022-11-26T07:26:09.651Z,12.30
2022-11-26T07:28:36.668Z,18.48
2022-11-26T07:31:09.142Z,14.75
2022-11-26T07:33:38.655Z,12.85
2022-11-26T07:36:08.411Z,14.50
2022-11-26T07:38:35.486Z,14.20
2022-11-26T07:41:13.450Z,12.73
2022-11-26T07:43:42.234Z,15.07
2022-11-26T07:46:12.583Z,15.65
2022-11-26T07:48:40.376Z,14.52
2022-11-26T07:51:28.768Z,24.15
2022-11-26T07:53:57.126Z,21.05
2022-11-26T07:56:23.954Z,22.40
2022-11-26T07:58:50.860Z,15.65
2022-11-26T08:01:21.319Z,15.15
2022-11-26T08:03:50.374Z,19.00
2022-11-26T08:06:22.831Z,18.35
2022-11-26T08:08:50.207Z,18.05
2022-11-26T08:11:20.170Z,18.23
2022-11-26T08:13:50.410Z,17.65
2022-11-26T08:16:17.453Z,20.90
2022-11-26T08:18:44.428Z,22.27
2022-11-26T08:21:11.520Z,22.13
2022-11-26T08:23:38.720Z,17.88
2022-11-26T08:26:23.055Z,22.25
2022-11-26T08:28:55.067Z,20.98
2022-11-26T08:31:24.802Z,22.35
2022-11-26T08:33:51.762Z,20.15
2022-11-26T08:36:18.655Z,15.50
2022-11-26T08:38:45.513Z,16.48
2022-11-26T08:41:13.633Z,18.38
2022-11-26T08:46:27.915Z,17.88
2022-11-26T08:48:58.398Z,20.25
2022-11-26T08:51:25.620Z,20.30
2022-11-26T08:53:52.818Z,24.95
2022-11-26T08:56:19.778Z,19.48
2022-11-26T08:58:48.700Z,42.15
2022-11-26T09:01:24.921Z,36.30
2022-11-26T09:03:53.496Z,26.05
2022-11-26T09:06:21.859Z,24.00
2022-11-26T09:09:07.661Z,23.67
2022-11-26T09:11:37.405Z,15.68
2022-11-26T09:14:04.594Z,16.40
2022-11-26T09:16:31.845Z,19.23
2022-11-26T09:19:04.143Z,14.27
2022-11-26T09:21:31.186Z,12.10
2022-11-26T09:23:57.995Z,12.73
2022-11-26T09:26:25.396Z,13.48
2022-11-26T09:28:52.350Z,13.48
2022-11-26T09:31:19.494Z,9.82
2022-11-26T09:33:46.896Z,10.63
2022-11-26T09:36:15.537Z,26.50
2022-11-26T09:38:42.521Z,17.27
2022-11-26T09:41:24.284Z,11.35
2022-11-26T09:43:54.118Z,9.45
2022-11-26T09:47:10.933Z,10.10
2022-11-26T09:49:43.012Z,11.63
2022-11-26T09:52:13.454Z,8.43
2022-11-26T09:54:40.852Z,6.70
2022-11-26T09:57:25.814Z,11.98
2022-11-26T09:59:55.501Z,7.00
2022-11-26T10:02:22.584Z,12.35
2022-11-26T10:04:49.423Z,11.18
2022-11-26T10:11:09.542Z,7.30
2022-11-26T10:18:01.122Z,11.85
2022-11-26T10:20:49.488Z,10.57
2022-11-26T10:23:23.390Z,8.80
2022-11-26T10:25:58.433Z,9.18
2022-11-26T10:28:33.521Z,12.73
2022-11-26T10:31:03.537Z,7.45
2022-11-26T10:33:40.002Z,9.68
2022-11-26T10:36:16.661Z,9.55
2022-11-26T10:38:43.532Z,6.82
2022-11-26T10:41:10.426Z,5.88
2022-11-26T10:43:37.248Z,7.78
2022-11-26T10:46:04.105Z,11.68
2022-11-26T10:48:32.794Z,7.43
2022-11-26T10:51:06.431Z,7.00
2022-11-26T10:53:59.917Z,9.25
2022-11-26T10:56:36.794Z,8.93
2022-11-26T10:59:25.974Z,10.05
2022-11-26T11:01:57.550Z,8.68
2022-11-26T11:06:59.963Z,11.05
2022-11-26T11:09:36.041Z,18.70
2022-11-26T11:12:16.018Z,8.80
2022-11-26T11:14:45.653Z,8.45
2022-11-26T11:17:37.528Z,10.18
2022-11-26T11:20:23.418Z,7.07
2022-11-26T11:22:57.948Z,6.22
2022-11-26T11:25:26.359Z,7.22
2022-11-26T11:27:55.293Z,9.88
2022-11-26T11:30:25.869Z,8.18
2022-11-26T11:32:57.230Z,7.03
2022-11-26T11:35:31.220Z,5.68
2022-11-26T11:37:58.758Z,7.78
2022-11-26T11:40:29.269Z,8.35
2022-11-26T11:43:02.862Z,6.78
2022-11-26T11:45:41.692Z,7.50
2022-11-26T11:48:26.058Z,10.55
2022-11-26T11:51:36.157Z,6.38
2022-11-26T11:54:30.527Z,9.15
2022-11-26T11:57:12.633Z,7.97
2022-11-26T12:00:11.993Z,7.82
2022-11-26T12:02:50.975Z,5.28
2022-11-26T12:05:41.262Z,9.35
2022-11-26T12:08:39.340Z,6.65
2022-11-26T12:11:23.183Z,7.35
2022-11-26T12:14:02.451Z,7.15
2022-11-26T12:16:38.168Z,8.00
2022-11-26T12:19:19.007Z,6.88
2022-11-26T12:21:58.131Z,8.73
2022-11-26T12:24:55.740Z,11.82
2022-11-26T12:27:35.758Z,9.02
2022-11-26T12:30:08.692Z,8.95
2022-11-26T12:32:47.724Z,7.80
2022-11-26T12:35:24.687Z,7.38
2022-11-26T12:37:56.548Z,5.68
2022-11-26T12:43:21.435Z,7.80
2022-11-26T12:46:16.503Z,8.27
2022-11-26T12:49:02.111Z,13.70
2022-11-26T12:51:54.189Z,10.27
2022-11-26T12:56:53.546Z,15.90
2022-11-26T12:59:26.648Z,16.92
2022-11-26T13:01:53.900Z,14.48
2022-11-26T13:04:37.160Z,13.38
2022-11-26T13:07:42.600Z,10.82
2022-11-26T13:10:15.547Z,14.23
2022-11-26T13:13:12.172Z,11.38
2022-11-26T13:15:48.106Z,8.52
2022-11-26T13:18:27.259Z,12.73
2022-11-26T13:21:14.233Z,12.43
2022-11-26T13:24:05.625Z,10.93
2022-11-26T13:26:41.518Z,13.10
2022-11-26T13:29:20.336Z,17.63
2022-11-26T13:32:12.699Z,15.82
2022-11-26T13:35:23.519Z,14.50
2022-11-26T13:38:25.867Z,15.70
2022-11-26T13:43:57.527Z,15.05
2022-11-26T13:46:53.739Z,15.35
2022-11-26T13:49:31.886Z,13.88
2022-11-26T13:52:11.048Z,16.58
2022-11-26T13:54:40.776Z,15.38
2022-11-26T13:57:21.295Z,23.65
2022-11-26T13:59:50.396Z,16.27
2022-11-26T14:02:42.566Z,13.55
2022-11-26T14:05:15.298Z,18.15
2022-11-26T14:08:22.055Z,14.82
2022-11-26T14:10:48.835Z,15.18
2022-11-26T14:13:16.593Z,17.88
2022-11-26T14:15:43.432Z,16.17
2022-11-26T14:18:15.991Z,16.73
2022-11-26T14:20:57.861Z,16.27
2022-11-26T14:23:47.544Z,18.50
2022-11-26T14:26:26.481Z,18.67
2022-11-26T14:29:04.961Z,16.92
2022-11-26T14:31:33.480Z,18.27
2022-11-26T14:34:26.488Z,20.90
2022-11-26T14:36:58.577Z,14.50
2022-11-26T14:39:26.997Z,20.70
2022-11-26T14:42:05.281Z,19.20
2022-11-26T14:44:33.257Z,17.80
2022-11-26T14:47:07.932Z,17.60
2022-11-26T14:49:37.604Z,17.58
2022-11-26T14:52:15.672Z,16.33
2022-11-26T14:54:43.217Z,19.58
2022-11-26T14:57:17.148Z,21.75
2022-11-26T15:00:08.729Z,20.70
2022-11-26T15:02:41.389Z,14.48
2022-11-26T15:05:30.670Z,18.83
2022-11-26T15:08:15.049Z,17.58
2022-11-26T15:10:56.994Z,13.48
2022-11-26T15:15:56.713Z,16.38
2022-11-26T15:18:31.630Z,19.98
2022-11-26T15:21:00.515Z,15.57
2022-11-26T15:23:33.512Z,16.20
2022-11-26T15:26:01.265Z,17.35
2022-11-26T15:28:28.506Z,18.70
2022-11-26T15:30:59.836Z,24.17
2022-11-26T15:33:32.679Z,23.08
2022-11-26T15:36:00.258Z,18.58
2022-11-26T15:38:32.767Z,17.50
2022-11-26T15:41:08.037Z,21.88
2022-11-26T15:43:42.881Z,18.35
2022-11-26T15:46:21.747Z,20.63
2022-11-26T15:48:53.477Z,15.27
2022-11-26T15:51:35.453Z,15.00
2022-11-26T15:54:16.173Z,15.18
2022-11-26T15:56:43.006Z,15.52
2022-11-26T15:59:16.555Z,15.65
2022-11-26T16:01:47.615Z,16.00
2022-11-26T16:04:32.867Z,14.32
2022-11-26T16:07:30.650Z,16.02
2022-11-26T16:10:15.962Z,8.10
2022-11-26T16:12:44.981Z,7.68
2022-11-26T16:15:18.673Z,11.75
2022-11-26T16:17:46.785Z,13.20
2022-11-26T16:20:26.671Z,11.60
2022-11-26T16:22:57.967Z,15.88
2022-11-26T16:25:30.778Z,6.45
2022-11-26T16:28:06.551Z,11.10
2022-11-26T16:30:33.716Z,13.75
2022-11-26T16:33:00.607Z,15.25
2022-11-26T16:35:45.262Z,13.60
2022-11-26T16:38:21.863Z,20.20
2022-11-26T16:40:49.586Z,16.38
2022-11-26T16:43:16.416Z,13.68
2022-11-26T16:45:43.624Z,11.20
2022-11-26T16:48:28.943Z,6.85
2022-11-26T16:50:56.388Z,6.80
2022-11-26T16:53:23.466Z,10.10
2022-11-26T16:55:51.110Z,12.48
2022-11-26T16:58:34.438Z,6.38
2022-11-26T17:01:01.624Z,9.73
2022-11-26T17:03:32.867Z,7.75
2022-11-26T17:06:10.651Z,10.05
2022-11-26T17:08:37.516Z,7.53
2022-11-26T17:11:04.323Z,8.55
2022-11-26T17:13:31.149Z,6.18
2022-11-26T17:15:58.446Z,8.00
2022-11-26T17:18:26.202Z,5.68
2022-11-26T17:20:54.277Z,6.75
2022-11-26T17:23:21.341Z,7.57
2022-11-26T17:25:53.248Z,6.65
2022-11-26T17:28:21.278Z,8.93
2022-11-26T17:30:48.147Z,8.48
2022-11-26T17:33:15.034Z,8.38
2022-11-26T17:35:42.002Z,6.70
2022-11-26T17:38:19.367Z,8.05
2022-11-26T17:40:47.124Z,3.78
2022-11-26T17:43:14.417Z,7.28
2022-11-26T17:45:41.899Z,5.78
2022-11-26T17:48:13.351Z,5.35
2022-11-26T17:50:41.092Z,4.22
2022-11-26T17:53:07.929Z,6.95
2022-11-26T17:55:34.784Z,7.20
2022-11-26T17:58:01.554Z,3.65
2022-11-26T18:00:29.690Z,10.43
2022-11-26T18:02:57.525Z,8.27
2022-11-26T18:05:24.940Z,9.63
2022-11-26T18:07:52.480Z,11.93
2022-11-26T18:10:21.655Z,13.25
2022-11-26T18:12:49.488Z,20.55
2022-11-26T18:15:24.404Z,20.17
2022-11-26T18:17:53.461Z,16.73
2022-11-26T18:20:23.455Z,13.40
2022-11-26T18:22:52.102Z,11.10
2022-11-26T18:25:19.031Z,13.77
2022-11-26T18:27:46.053Z,11.25
2022-11-26T18:30:13.146Z,16.52
2022-11-26T18:32:40.510Z,16.15
2022-11-26T18:35:07.726Z,12.90
2022-11-26T18:37:35.794Z,6.60
2022-11-26T18:40:02.670Z,6.80
2022-11-26T18:42:37.005Z,5.53
2022-11-26T18:45:05.215Z,9.75
2022-11-26T18:47:31.965Z,7.00
2022-11-26T18:49:58.779Z,9.32
2022-11-26T18:52:25.539Z,9.32
2022-11-26T18:54:52.397Z,7.03
2022-11-26T18:57:19.154Z,7.80
2022-11-26T18:59:46.837Z,6.50
2022-11-26T19:02:13.938Z,9.93
2022-11-26T19:04:41.175Z,11.93
2022-11-26T19:07:09.892Z,9.65
2022-11-26T19:09:37.882Z,6.40
2022-11-26T19:12:05.286Z,8.18
2022-11-26T19:14:32.244Z,5.88
2022-11-26T19:16:59.040Z,5.43
2022-11-26T19:19:27.463Z,6.57
2022-11-26T19:22:00.428Z,6.47
2022-11-26T19:24:27.669Z,5.90
2022-11-26T19:26:54.531Z,5.93
2022-11-26T19:29:21.497Z,7.70
2022-11-26T19:31:48.260Z,4.82
2022-11-26T19:34:16.029Z,4.05
2022-11-26T19:36:45.776Z,4.90
2022-11-26T19:39:12.523Z,6.53
2022-11-26T19:41:39.304Z,6.10
2022-11-26T19:44:07.131Z,14.50
2022-11-26T19:46:36.713Z,9.18
2022-11-26T19:49:03.486Z,9.52
2022-11-26T19:52:09.999Z,7.65
2022-11-26T19:54:36.946Z,3.80
2022-11-26T19:57:03.776Z,8.20
2022-11-26T19:59:30.543Z,2.90
2022-11-26T20:01:57.389Z,5.13
2022-11-26T20:04:27.483Z,3.42
2022-11-26T20:06:54.623Z,2.90
2022-11-26T20:09:22.935Z,3.47
2022-11-26T20:11:49.714Z,3.15
2022-11-26T20:14:16.461Z,4.63
2022-11-26T20:16:45.029Z,3.15
2022-11-26T20:19:12.938Z,2.90
2022-11-26T20:21:39.912Z,3.63
2022-11-26T20:24:11.728Z,3.65
2022-11-26T20:29:12.358Z,5.50
2022-11-26T20:31:47.433Z,5.68
2022-11-26T20:34:18.984Z,5.07
2022-11-26T20:36:45.942Z,4.72
2022-11-26T20:39:15.230Z,7.95
2022-11-26T20:41:42.554Z,9.00
2022-11-26T20:44:10.461Z,12.48
2022-11-26T20:46:37.474Z,5.40
2022-11-26T20:49:06.086Z,4.55
2022-11-26T20:51:33.415Z,7.22
2022-11-26T20:54:02.216Z,8.10
2022-11-26T20:56:29.267Z,7.60
2022-11-26T20:58:56.206Z,7.88
2022-11-26T21:01:25.781Z,9.15
2022-11-26T21:03:53.226Z,15.88
2022-11-26T21:06:29.103Z,12.73
2022-11-26T21:08:59.095Z,9.80
2022-11-26T21:11:25.834Z,7.65
2022-11-26T21:13:52.732Z,7.90
2022-11-26T21:16:20.048Z,10.13
2022-11-26T21:18:46.872Z,10.95
2022-11-26T21:21:15.974Z,10.60
2022-11-26T21:23:44.379Z,11.45
2022-11-26T21:26:15.951Z,9.90
2022-11-26T21:28:42.717Z,10.45
2022-11-26T21:31:17.315Z,5.50
2022-11-26T21:33:46.222Z,5.45
2022-11-26T21:36:15.928Z,5.70
2022-11-26T21:38:47.169Z,5.50
2022-11-26T21:41:15.483Z,6.32
2022-11-26T21:43:43.673Z,5.10
2022-11-26T21:46:15.861Z,3.63
2022-11-26T21:48:42.789Z,3.60
2022-11-26T21:51:12.678Z,4.70
2022-11-26T21:53:40.195Z,7.00
2022-11-26T21:56:12.368Z,3.50
2022-11-26T21:58:39.334Z,7.05
2022-11-26T22:01:14.212Z,2.95
2022-11-26T22:03:43.120Z,5.57
2022-11-26T22:06:11.221Z,4.20
2022-11-26T22:08:38.242Z,4.72
2022-11-26T22:11:14.474Z,5.75
2022-11-26T22:13:42.063Z,3.20
2022-11-26T22:16:10.663Z,3.78
2022-11-26T22:18:38.818Z,4.80
2022-11-26T22:21:12.103Z,2.97
2022-11-26T22:23:38.869Z,4.15
2022-11-26T22:26:05.942Z,5.93
2022-11-26T22:28:33.191Z,4.63
2022-11-26T22:31:00.082Z,2.92
2022-11-26T22:33:26.890Z,3.88
2022-11-26T22:35:53.623Z,5.03
2022-11-26T22:38:20.361Z,3.97
2022-11-26T22:40:47.080Z,3.50
2022-11-26T22:43:13.823Z,3.35
2022-11-26T22:45:40.625Z,4.28
2022-11-26T22:48:07.409Z,3.55
2022-11-26T22:50:34.135Z,3.47
2022-11-26T22:53:00.897Z,3.40
2022-11-26T22:55:27.630Z,4.03
2022-11-26T22:57:54.366Z,3.35
2022-11-26T23:00:44.377Z,3.05
2022-11-26T23:03:11.282Z,3.20
2022-11-26T23:05:38.768Z,6.28
2022-11-26T23:08:05.589Z,3.35
2022-11-26T23:10:32.463Z,3.83
2022-11-26T23:12:59.223Z,6.80
2022-11-26T23:15:25.994Z,3.33
2022-11-26T23:17:52.735Z,2.70
2022-11-26T23:20:19.522Z,3.85
2022-11-26T23:22:46.361Z,3.88
2022-11-26T23:25:13.145Z,4.32
2022-11-26T23:27:39.888Z,5.57
2022-11-26T23:30:07.246Z,5.97
2022-11-26T23:32:34.010Z,5.63
2022-11-26T23:35:01.635Z,5.57
2022-11-26T23:37:28.412Z,8.02
2022-11-26T23:39:55.154Z,2.92
2022-11-26T23:42:21.901Z,2.78
2022-11-26T23:44:48.635Z,3.58
2022-11-26T23:47:15.386Z,6.40
2022-11-26T23:49:42.309Z,3.28
2022-11-26T23:52:09.171Z,3.40
2022-11-26T23:54:35.934Z,3.55
2022-11-26T23:57:02.688Z,1.92
2022-11-26T23:59:29.524Z,5.68
